createdAt,value
2023-03-16T00:00:05.147Z,4.11
2023-03-16T00:02:32.048Z,4.04
2023-03-16T00:04:58.896Z,4.04
2023-03-16T00:07:26.092Z,4.11
2023-03-16T00:09:54.766Z,4.00
2023-03-16T00:12:22.783Z,4.04
2023-03-16T00:14:50.082Z,4.00
2023-03-16T00:17:20.513Z,4.20
2023-03-16T00:19:48.211Z,4.17
2023-03-16T00:22:16.555Z,4.17
2023-03-16T00:24:43.830Z,4.12
2023-03-16T00:27:14.872Z,4.08
2023-03-16T00:29:56.210Z,4.01
2023-03-16T00:32:29.071Z,4.13
2023-03-16T00:34:56.183Z,3.96
2023-03-16T00:37:24.250Z,4.12
2023-03-16T00:39:52.714Z,4.15
2023-03-16T00:42:20.362Z,4.04
2023-03-16T00:44:47.612Z,4.01
2023-03-16T00:47:14.818Z,4.00
2023-03-16T00:49:44.782Z,4.01
2023-03-16T00:52:16.078Z,4.08
2023-03-16T00:54:45.040Z,4.16
2023-03-16T00:57:14.751Z,4.23
2023-03-16T00:59:42.352Z,4.24
2023-03-16T01:02:11.109Z,4.15
2023-03-16T01:04:40.256Z,4.12
2023-03-16T01:07:13.780Z,4.10
2023-03-16T01:09:42.193Z,4.26
2023-03-16T01:12:12.412Z,4.34
2023-03-16T01:14:40.183Z,4.24
2023-03-16T01:17:09.088Z,4.01
2023-03-16T01:19:37.847Z,4.17
2023-03-16T01:22:09.951Z,4.19
2023-03-16T01:24:36.895Z,4.10
2023-03-16T01:27:04.877Z,4.10
2023-03-16T01:29:33.298Z,4.11
2023-03-16T01:32:01.624Z,4.13
2023-03-16T01:34:28.785Z,3.95
2023-03-16T01:36:55.694Z,3.89
2023-03-16T01:39:23.407Z,4.05
2023-03-16T01:41:50.596Z,4.03
2023-03-16T01:44:22.637Z,4.01
2023-03-16T01:46:49.512Z,3.94
2023-03-16T01:49:25.338Z,4.09
2023-03-16T01:51:58.087Z,4.10
2023-03-16T01:54:39.923Z,4.12
2023-03-16T01:57:22.285Z,4.04
2023-03-16T01:59:58.067Z,4.03
2023-03-16T02:02:30.325Z,4.05
2023-03-16T02:05:03.070Z,3.86
2023-03-16T02:07:34.971Z,3.91
2023-03-16T02:10:03.299Z,3.82
2023-03-16T02:12:30.300Z,3.83
2023-03-16T02:14:57.426Z,3.77
2023-03-16T02:17:28.290Z,3.76
2023-03-16T02:20:11.384Z,3.91
2023-03-16T02:22:42.435Z,3.97
2023-03-16T02:25:14.786Z,3.91
2023-03-16T02:27:54.637Z,3.80
2023-03-16T02:30:22.036Z,3.77
2023-03-16T02:32:53.271Z,3.81
2023-03-16T02:35:21.674Z,3.90
2023-03-16T02:37:49.012Z,3.89
2023-03-16T02:40:22.524Z,3.96
2023-03-16T02:43:00.179Z,3.92
2023-03-16T02:45:33.658Z,4.01
2023-03-16T02:48:05.849Z,4.09
2023-03-16T02:50:33.006Z,4.14
2023-03-16T02:52:59.890Z,4.11
2023-03-16T02:55:26.925Z,4.21
2023-03-16T02:57:53.948Z,4.16
2023-03-16T03:00:22.257Z,4.13
2023-03-16T03:02:49.321Z,4.22
2023-03-16T03:05:16.229Z,4.25
2023-03-16T03:07:44.772Z,4.30
2023-03-16T03:10:11.874Z,4.29
2023-03-16T03:12:39.124Z,4.15
2023-03-16T03:15:06.711Z,4.04
2023-03-16T03:17:33.753Z,4.07
2023-03-16T03:20:22.101Z,4.07
2023-03-16T03:22:50.322Z,4.17
2023-03-16T03:25:19.042Z,4.18
2023-03-16T03:27:47.405Z,4.16
2023-03-16T03:30:20.087Z,4.21
2023-03-16T03:32:47.127Z,4.18
2023-03-16T03:35:16.053Z,4.05
2023-03-16T03:37:45.716Z,4.12
2023-03-16T03:40:14.778Z,4.21
2023-03-16T03:42:43.209Z,4.10
2023-03-16T03:45:15.379Z,4.06
2023-03-16T03:47:43.523Z,4.09
2023-03-16T03:50:13.986Z,4.01
2023-03-16T03:52:41.830Z,3.94
2023-03-16T03:55:10.151Z,3.97
2023-03-16T03:57:37.114Z,3.90
2023-03-16T04:00:11.544Z,3.91
2023-03-16T04:02:39.279Z,4.04
2023-03-16T04:05:07.262Z,3.99
2023-03-16T04:07:35.063Z,3.81
2023-03-16T04:10:01.986Z,3.77
2023-03-16T04:12:28.834Z,3.74
2023-03-16T04:14:55.821Z,3.75
2023-03-16T04:17:24.270Z,3.73
2023-03-16T04:19:52.215Z,3.65
2023-03-16T04:22:19.208Z,3.66
2023-03-16T04:24:46.360Z,3.59
2023-03-16T04:27:13.790Z,3.65
2023-03-16T04:29:40.826Z,3.54
2023-03-16T04:32:08.224Z,3.44
2023-03-16T04:34:35.132Z,3.56
2023-03-16T04:37:02.781Z,3.46
2023-03-16T04:39:29.706Z,3.44
2023-03-16T04:41:56.876Z,3.52
2023-03-16T04:44:26.115Z,3.58
2023-03-16T04:46:53.245Z,3.46
2023-03-16T04:49:20.400Z,3.41
2023-03-16T04:51:47.473Z,3.48
2023-03-16T04:54:14.377Z,3.61
2023-03-16T04:56:41.838Z,3.66
2023-03-16T04:59:08.920Z,3.62
2023-03-16T05:01:36.013Z,3.82
2023-03-16T05:04:02.944Z,3.83
2023-03-16T05:06:30.014Z,3.97
2023-03-16T05:08:59.569Z,3.96
2023-03-16T05:11:26.894Z,3.94
2023-03-16T05:13:56.311Z,3.97
2023-03-16T05:16:23.486Z,4.01
2023-03-16T05:18:50.786Z,4.04
2023-03-16T05:21:18.173Z,4.05
2023-03-16T05:23:46.105Z,4.06
2023-03-16T05:26:13.468Z,4.11
2023-03-16T05:28:40.420Z,4.13
2023-03-16T05:31:07.408Z,4.23
2023-03-16T05:33:41.791Z,4.26
2023-03-16T05:36:08.906Z,4.31
2023-03-16T05:38:37.023Z,4.25
2023-03-16T05:41:05.993Z,4.25
2023-03-16T05:43:34.655Z,4.35
2023-03-16T05:46:02.299Z,4.39
2023-03-16T05:48:29.820Z,4.45
2023-03-16T05:50:56.831Z,4.41
2023-03-16T05:53:29.023Z,4.49
2023-03-16T05:55:55.950Z,4.50
2023-03-16T05:58:22.969Z,4.47
2023-03-16T06:00:50.680Z,4.99
2023-03-16T06:03:17.901Z,4.61
2023-03-16T06:05:44.902Z,4.71
2023-03-16T06:08:11.851Z,4.65
2023-03-16T06:10:39.922Z,4.61
2023-03-16T06:13:07.061Z,4.68
2023-03-16T06:15:33.928Z,4.65
2023-03-16T06:18:01.078Z,4.64
2023-03-16T06:20:28.661Z,4.59
2023-03-16T06:22:55.812Z,4.62
2023-03-16T06:25:22.673Z,4.51
2023-03-16T06:27:49.784Z,4.76
2023-03-16T06:30:17.160Z,4.70
2023-03-16T06:32:46.071Z,4.72
2023-03-16T06:35:14.277Z,4.85
2023-03-16T06:37:41.349Z,4.73
2023-03-16T06:40:09.293Z,4.68
2023-03-16T06:42:36.380Z,4.89
2023-03-16T06:45:04.450Z,4.99
2023-03-16T06:47:32.240Z,5.22
2023-03-16T06:49:59.421Z,5.20
2023-03-16T06:52:26.458Z,5.26
2023-03-16T06:54:53.421Z,5.28
2023-03-16T06:57:20.584Z,5.28
2023-03-16T06:59:47.516Z,5.32
2023-03-16T07:02:17.201Z,5.34
2023-03-16T07:04:44.229Z,5.59
2023-03-16T07:07:12.576Z,5.46
2023-03-16T07:09:41.804Z,5.39
2023-03-16T07:12:10.288Z,5.48
2023-03-16T07:14:37.617Z,5.54
2023-03-16T07:17:04.570Z,5.65
2023-03-16T07:19:31.727Z,5.62
2023-03-16T07:21:58.625Z,5.52
2023-03-16T07:24:25.466Z,5.65
2023-03-16T07:26:53.691Z,5.70
2023-03-16T07:29:20.599Z,5.71
2023-03-16T07:31:47.748Z,5.88
2023-03-16T07:34:14.696Z,5.88
2023-03-16T07:36:42.339Z,5.77
2023-03-16T07:39:10.293Z,5.74
2023-03-16T07:41:37.285Z,5.62
2023-03-16T07:44:04.460Z,5.56
2023-03-16T07:46:32.920Z,5.68
2023-03-16T07:48:59.970Z,5.57
2023-03-16T07:51:26.831Z,5.65
2023-03-16T07:53:54.145Z,5.73
2023-03-16T07:56:21.838Z,5.85
2023-03-16T07:58:48.762Z,5.65
2023-03-16T08:01:15.671Z,5.76
2023-03-16T08:03:42.865Z,5.68
2023-03-16T08:06:11.455Z,5.73
2023-03-16T08:08:38.389Z,5.72
2023-03-16T08:11:05.516Z,5.96
2023-03-16T08:13:32.740Z,6.07
2023-03-16T08:16:02.864Z,6.17
2023-03-16T08:18:32.962Z,6.15
2023-03-16T08:20:59.956Z,6.22
2023-03-16T08:23:27.092Z,6.16
2023-03-16T08:25:55.342Z,6.10
2023-03-16T08:28:22.383Z,6.02
2023-03-16T08:30:51.243Z,6.11
2023-03-16T08:33:22.584Z,6.31
2023-03-16T08:35:50.048Z,6.08
2023-03-16T08:38:17.297Z,6.34
2023-03-16T08:40:50.074Z,6.14
2023-03-16T08:43:18.177Z,6.30
2023-03-16T08:45:46.264Z,6.23
2023-03-16T08:48:16.112Z,6.20
2023-03-16T08:50:44.301Z,6.25
2023-03-16T08:53:13.810Z,6.03
2023-03-16T08:55:44.436Z,6.09
2023-03-16T08:58:12.463Z,6.30
2023-03-16T09:00:39.686Z,6.20
2023-03-16T09:03:10.325Z,6.45
2023-03-16T09:05:38.669Z,6.48
2023-03-16T09:08:06.366Z,6.36
2023-03-16T09:10:33.958Z,6.34
2023-03-16T09:13:01.889Z,6.38
2023-03-16T09:15:29.303Z,6.50
2023-03-16T09:17:57.550Z,6.37
2023-03-16T09:20:29.595Z,6.36
2023-03-16T09:22:58.032Z,6.30
2023-03-16T09:25:26.515Z,6.32
2023-03-16T09:27:59.533Z,6.18
2023-03-16T09:30:29.239Z,6.30
2023-03-16T09:32:56.378Z,6.33
2023-03-16T09:35:23.888Z,6.27
2023-03-16T09:38:05.118Z,6.47
2023-03-16T09:40:36.284Z,6.51
2023-03-16T09:43:21.863Z,6.68
2023-03-16T09:46:28.947Z,6.73
2023-03-16T09:48:58.054Z,6.77
2023-03-16T09:51:45.058Z,6.79
2023-03-16T09:54:34.827Z,6.76
2023-03-16T09:57:04.436Z,7.04
2023-03-16T09:59:31.769Z,6.94
2023-03-16T10:02:43.150Z,6.99
2023-03-16T10:05:12.879Z,6.61
2023-03-16T10:08:07.857Z,6.96
2023-03-16T10:10:55.274Z,7.11
2023-03-16T10:13:31.592Z,7.06
2023-03-16T10:16:03.020Z,7.43
2023-03-16T10:18:39.668Z,7.66
2023-03-16T10:21:11.077Z,7.94
2023-03-16T10:23:39.600Z,8.11
2023-03-16T10:26:37.865Z,8.36
2023-03-16T10:29:12.709Z,8.13
2023-03-16T10:31:42.757Z,8.41
2023-03-16T10:34:10.926Z,8.51
2023-03-16T10:36:45.689Z,8.33
2023-03-16T10:39:14.873Z,8.46
2023-03-16T10:41:47.251Z,8.33
2023-03-16T10:44:16.933Z,8.34
2023-03-16T10:46:49.640Z,8.61
2023-03-16T10:49:25.940Z,8.47
2023-03-16T10:51:59.766Z,8.31
2023-03-16T10:54:37.689Z,8.48
2023-03-16T10:57:21.420Z,8.50
2023-03-16T10:59:51.354Z,8.42
2023-03-16T11:02:41.045Z,8.66
2023-03-16T11:05:32.485Z,8.13
2023-03-16T11:08:11.545Z,8.05
2023-03-16T11:10:54.674Z,7.95
2023-03-16T11:13:26.496Z,8.01
2023-03-16T11:16:23.196Z,8.26
2023-03-16T11:19:22.242Z,8.20
2023-03-16T11:22:15.884Z,8.34
2023-03-16T11:24:50.947Z,8.31
2023-03-16T11:27:42.178Z,8.21
2023-03-16T11:30:40.595Z,7.76
2023-03-16T11:33:14.257Z,7.91
2023-03-16T11:35:58.009Z,8.05
2023-03-16T11:38:39.471Z,7.99
2023-03-16T11:41:23.934Z,8.08
2023-03-16T11:43:57.737Z,8.18
2023-03-16T11:46:37.158Z,8.19
2023-03-16T11:49:32.081Z,9.03
2023-03-16T11:52:27.013Z,9.10
2023-03-16T11:55:14.715Z,9.06
2023-03-16T11:57:44.662Z,9.19
2023-03-16T12:00:18.468Z,8.88
2023-03-16T12:03:09.011Z,8.68
2023-03-16T12:05:59.866Z,8.68
2023-03-16T12:08:57.787Z,8.62
2023-03-16T12:11:58.213Z,8.60
2023-03-16T12:14:32.594Z,8.61
2023-03-16T12:17:18.304Z,8.51
2023-03-16T12:19:47.972Z,8.59
2023-03-16T12:22:26.733Z,8.38
2023-03-16T12:24:53.761Z,8.51
2023-03-16T12:27:48.500Z,9.13
2023-03-16T12:30:46.485Z,9.12
2023-03-16T12:33:58.075Z,9.20
2023-03-16T12:40:34.159Z,9.07
2023-03-16T12:43:12.927Z,8.79
2023-03-16T12:45:46.572Z,9.07
2023-03-16T12:48:32.535Z,8.77
2023-03-16T12:51:03.561Z,8.47
2023-03-16T12:53:44.319Z,8.56
2023-03-16T12:56:16.630Z,8.47
2023-03-16T12:58:49.160Z,8.89
2023-03-16T13:01:20.420Z,8.97
2023-03-16T13:03:52.263Z,8.73
2023-03-16T13:06:25.216Z,8.66
2023-03-16T13:08:58.035Z,8.29
2023-03-16T13:11:25.497Z,8.31
2023-03-16T13:14:11.084Z,8.17
2023-03-16T13:16:39.795Z,8.08
2023-03-16T13:19:38.135Z,8.32
2023-03-16T13:22:29.426Z,8.59
2023-03-16T13:25:12.381Z,8.84
2023-03-16T13:27:41.609Z,8.41
2023-03-16T13:30:28.987Z,8.39
2023-03-16T13:33:14.348Z,8.90
2023-03-16T13:35:44.160Z,8.66
2023-03-16T13:38:19.020Z,8.49
2023-03-16T13:40:55.717Z,8.27
2023-03-16T13:43:29.546Z,8.33
2023-03-16T13:45:56.886Z,8.20
2023-03-16T13:48:25.626Z,8.30
2023-03-16T13:50:54.380Z,8.20
2023-03-16T13:53:25.613Z,8.25
2023-03-16T13:56:29.567Z,8.15
2023-03-16T13:58:59.617Z,8.36
2023-03-16T14:01:29.607Z,8.13
2023-03-16T14:04:00.460Z,7.93
2023-03-16T14:06:31.703Z,8.00
2023-03-16T14:09:06.755Z,8.08
2023-03-16T14:11:34.247Z,8.01
2023-03-16T14:14:14.780Z,8.03
2023-03-16T14:16:42.937Z,8.11
2023-03-16T14:19:24.629Z,8.38
2023-03-16T14:21:53.816Z,8.31
2023-03-16T14:24:39.551Z,8.12
2023-03-16T14:27:18.757Z,7.76
2023-03-16T14:29:46.807Z,7.77
2023-03-16T14:32:27.252Z,7.67
2023-03-16T14:35:02.998Z,7.51
2023-03-16T14:37:37.589Z,7.57
2023-03-16T14:40:25.699Z,7.68
2023-03-16T14:42:55.060Z,7.49
2023-03-16T14:45:22.986Z,7.55
2023-03-16T14:47:51.582Z,7.85
2023-03-16T14:50:25.642Z,7.82
2023-03-16T14:52:55.065Z,8.03
2023-03-16T14:55:23.750Z,8.03
2023-03-16T14:57:57.170Z,8.32
2023-03-16T15:00:25.672Z,8.16
2023-03-16T15:03:15.139Z,8.26
2023-03-16T15:05:46.620Z,8.20
2023-03-16T15:09:02.539Z,7.86
2023-03-16T15:11:29.807Z,7.74
2023-03-16T15:14:15.872Z,7.57
2023-03-16T15:16:42.784Z,7.46
2023-03-16T15:19:10.260Z,7.70
2023-03-16T15:21:39.515Z,7.76
2023-03-16T15:24:15.022Z,7.93
2023-03-16T15:26:42.173Z,7.97
2023-03-16T15:29:57.012Z,7.96
2023-03-16T15:32:24.378Z,8.11
2023-03-16T15:34:51.434Z,8.17
2023-03-16T15:37:19.919Z,8.07
2023-03-16T15:39:47.618Z,8.08
2023-03-16T15:42:19.864Z,7.89
2023-03-16T15:44:47.005Z,7.93
2023-03-16T15:47:14.912Z,7.87
2023-03-16T15:49:48.402Z,7.72
2023-03-16T15:52:30.900Z,7.72
2023-03-16T15:55:01.870Z,7.69
2023-03-16T15:57:28.765Z,7.61
2023-03-16T15:59:56.134Z,7.65
2023-03-16T16:02:28.738Z,7.53
2023-03-16T16:04:56.594Z,7.31
2023-03-16T16:07:33.927Z,7.13
2023-03-16T16:10:02.432Z,7.23
2023-03-16T16:12:35.665Z,6.93
2023-03-16T16:15:29.297Z,7.03
2023-03-16T16:18:19.875Z,7.08
2023-03-16T16:20:47.041Z,7.05
2023-03-16T16:23:15.417Z,6.92
2023-03-16T16:25:45.113Z,6.90
2023-03-16T16:28:26.797Z,6.74
2023-03-16T16:30:54.187Z,6.89
2023-03-16T16:33:41.133Z,6.92
2023-03-16T16:36:16.270Z,6.76
2023-03-16T16:38:44.684Z,6.70
2023-03-16T16:41:25.790Z,6.64
2023-03-16T16:43:57.661Z,6.60
2023-03-16T16:46:27.885Z,6.58
2023-03-16T16:49:01.954Z,6.72
2023-03-16T16:51:30.164Z,6.66
2023-03-16T16:53:59.006Z,6.58
2023-03-16T16:56:34.212Z,6.62
2023-03-16T16:59:13.225Z,6.49
2023-03-16T17:01:42.546Z,6.61
2023-03-16T17:04:18.189Z,6.45
2023-03-16T17:06:46.518Z,6.43
2023-03-16T17:09:14.481Z,6.46
2023-03-16T17:11:42.765Z,6.42
2023-03-16T17:14:16.692Z,6.39
2023-03-16T17:16:43.636Z,6.31
2023-03-16T17:19:40.369Z,6.39
2023-03-16T17:22:20.207Z,6.36
2023-03-16T17:24:48.144Z,6.36
2023-03-16T17:27:18.330Z,6.25
2023-03-16T17:29:45.157Z,6.14
2023-03-16T17:32:22.759Z,6.20
2023-03-16T17:34:51.129Z,6.22
2023-03-16T17:37:21.266Z,6.32
2023-03-16T17:39:49.015Z,6.24
2023-03-16T17:42:18.766Z,6.24
2023-03-16T17:44:56.379Z,6.12
2023-03-16T17:47:26.041Z,6.24
2023-03-16T17:49:53.325Z,6.29
2023-03-16T17:52:26.477Z,6.28
2023-03-16T17:54:54.310Z,6.23
2023-03-16T17:57:33.868Z,6.28
2023-03-16T18:00:03.526Z,6.11
2023-03-16T18:02:56.233Z,6.15
2023-03-16T18:05:33.402Z,6.07
2023-03-16T18:08:27.822Z,6.10
2023-03-16T18:11:04.483Z,6.15
2023-03-16T18:13:33.566Z,6.10
2023-03-16T18:16:03.489Z,6.14
2023-03-16T18:18:35.198Z,6.16
2023-03-16T18:21:02.210Z,6.21
2023-03-16T18:23:34.843Z,6.09
2023-03-16T18:26:22.092Z,6.15
2023-03-16T18:28:51.798Z,6.06
2023-03-16T18:31:35.774Z,6.11
2023-03-16T18:34:06.490Z,6.05
2023-03-16T18:36:37.424Z,6.10
2023-03-16T18:39:07.803Z,6.17
2023-03-16T18:41:36.075Z,6.20
2023-03-16T18:44:30.605Z,6.22
2023-03-16T18:47:03.719Z,6.26
2023-03-16T18:49:34.473Z,6.20
2023-03-16T18:52:01.990Z,6.23
2023-03-16T18:54:31.670Z,6.21
2023-03-16T18:56:59.978Z,6.25
2023-03-16T18:59:27.532Z,6.29
2023-03-16T19:01:54.547Z,6.28
2023-03-16T19:04:23.190Z,6.08
2023-03-16T19:06:53.673Z,6.20
2023-03-16T19:09:28.128Z,6.09
2023-03-16T19:11:55.080Z,6.05
2023-03-16T19:14:28.422Z,6.14
2023-03-16T19:16:55.798Z,6.21
2023-03-16T19:19:24.439Z,6.25
2023-03-16T19:21:54.026Z,6.29
2023-03-16T19:24:30.369Z,6.24
2023-03-16T19:26:57.865Z,6.24
2023-03-16T19:29:35.908Z,6.26
2023-03-16T19:32:03.039Z,6.26
2023-03-16T19:34:29.946Z,6.25
2023-03-16T19:36:56.884Z,6.09
2023-03-16T19:39:24.044Z,6.28
2023-03-16T19:41:57.829Z,6.11
2023-03-16T19:44:27.730Z,6.10
2023-03-16T19:46:55.733Z,6.01
2023-03-16T19:49:26.326Z,6.09
2023-03-16T19:51:55.405Z,6.19
2023-03-16T19:54:23.959Z,6.01
2023-03-16T19:56:55.080Z,6.14
2023-03-16T19:59:31.376Z,6.09
2023-03-16T20:01:58.677Z,6.04
2023-03-16T20:04:27.766Z,6.19
2023-03-16T20:06:55.243Z,6.06
2023-03-16T20:09:22.943Z,6.15
2023-03-16T20:11:50.393Z,6.00
2023-03-16T20:14:33.931Z,5.95
2023-03-16T20:17:01.239Z,5.95
2023-03-16T20:19:28.842Z,5.92
2023-03-16T20:21:56.020Z,6.07
2023-03-16T20:24:26.534Z,6.05
2023-03-16T20:26:54.731Z,5.99
2023-03-16T20:29:31.703Z,5.99
2023-03-16T20:32:02.584Z,5.99
2023-03-16T20:34:31.482Z,6.08
2023-03-16T20:36:59.436Z,6.10
2023-03-16T20:39:26.692Z,6.04
2023-03-16T20:41:53.913Z,6.04
2023-03-16T20:44:25.740Z,6.10
2023-03-16T20:46:52.861Z,6.14
2023-03-16T20:49:23.475Z,6.00
2023-03-16T20:51:50.515Z,5.97
2023-03-16T20:54:20.802Z,5.94
2023-03-16T20:56:48.555Z,5.91
2023-03-16T20:59:23.967Z,6.09
2023-03-16T21:02:02.055Z,6.01
2023-03-16T21:04:30.354Z,5.97
2023-03-16T21:06:57.793Z,5.78
2023-03-16T21:09:25.006Z,5.85
2023-03-16T21:11:52.314Z,5.95
2023-03-16T21:14:23.915Z,5.74
2023-03-16T21:16:51.738Z,5.82
2023-03-16T21:19:21.306Z,5.73
2023-03-16T21:21:48.369Z,5.74
2023-03-16T21:24:16.400Z,5.79
2023-03-16T21:26:45.124Z,5.76
2023-03-16T21:29:17.038Z,5.80
2023-03-16T21:31:44.347Z,5.64
2023-03-16T21:34:34.070Z,5.60
2023-03-16T21:37:01.147Z,5.60
2023-03-16T21:39:28.735Z,5.61
2023-03-16T21:41:56.231Z,5.47
2023-03-16T21:44:23.181Z,5.30
2023-03-16T21:46:51.075Z,5.39
2023-03-16T21:49:18.383Z,5.34
2023-03-16T21:51:51.615Z,5.43
2023-03-16T21:54:19.736Z,5.45
2023-03-16T21:56:48.311Z,5.40
2023-03-16T21:59:15.807Z,5.38
2023-03-16T22:01:58.636Z,5.33
2023-03-16T22:04:28.333Z,5.35
2023-03-16T22:06:55.530Z,5.26
2023-03-16T22:09:22.883Z,5.14
2023-03-16T22:11:49.984Z,5.18
2023-03-16T22:14:17.153Z,5.35
2023-03-16T22:16:44.086Z,5.22
2023-03-16T22:19:18.236Z,5.22
2023-03-16T22:21:47.499Z,5.23
2023-03-16T22:24:18.428Z,5.10
2023-03-16T22:26:46.751Z,5.17
2023-03-16T22:29:26.735Z,5.07
2023-03-16T22:31:58.512Z,4.96
2023-03-16T22:34:32.895Z,5.02
2023-03-16T22:37:01.624Z,5.08
2023-03-16T22:39:35.500Z,5.16
2023-03-16T22:42:02.776Z,5.15
2023-03-16T22:44:33.149Z,5.11
2023-03-16T22:47:00.310Z,5.20
2023-03-16T22:49:28.488Z,5.25
2023-03-16T22:51:57.634Z,5.22
2023-03-16T22:54:29.392Z,5.12
2023-03-16T22:56:56.737Z,5.11
2023-03-16T22:59:26.957Z,5.16
2023-03-16T23:01:54.198Z,5.00
2023-03-16T23:04:24.744Z,5.21
2023-03-16T23:06:53.768Z,5.14
2023-03-16T23:09:22.102Z,5.28
2023-03-16T23:11:54.541Z,5.18
2023-03-16T23:14:24.466Z,5.16
2023-03-16T23:16:54.785Z,5.09
2023-03-16T23:19:34.758Z,5.10
2023-03-16T23:22:06.850Z,5.08
2023-03-16T23:24:34.467Z,5.18
2023-03-16T23:27:02.395Z,5.22
2023-03-16T23:29:29.902Z,5.20
2023-03-16T23:31:57.033Z,5.16
2023-03-16T23:34:26.276Z,5.19
2023-03-16T23:36:53.371Z,5.19
2023-03-16T23:39:20.506Z,5.12
2023-03-16T23:41:50.238Z,5.20
2023-03-16T23:44:23.755Z,5.20
2023-03-16T23:46:51.637Z,5.13
2023-03-16T23:49:26.217Z,5.12
2023-03-16T23:51:55.841Z,5.16
2023-03-16T23:54:25.547Z,5.18
2023-03-16T23:56:53.042Z,5.22
2023-03-16T23:59:21.159Z,5.32
